createdAt,value
2023-02-16T00:03:47.666Z,2.75
2023-02-16T00:08:53.517Z,2.75
2023-02-16T00:13:56.870Z,2.76
2023-02-16T00:18:59.858Z,2.77
2023-02-16T00:24:02.964Z,2.76
2023-02-16T00:29:06.807Z,2.77
2023-02-16T00:34:31.090Z,2.77
2023-02-16T00:39:35.030Z,2.78
2023-02-16T00:44:47.356Z,2.79
2023-02-16T00:49:53.741Z,2.79
2023-02-16T00:54:58.362Z,2.79
2023-02-16T01:00:06.872Z,2.81
2023-02-16T01:05:11.036Z,2.81
2023-02-16T01:10:33.076Z,2.81
2023-02-16T01:15:38.109Z,2.81
2023-02-16T01:20:41.229Z,2.82
2023-02-16T01:25:44.541Z,2.83
2023-02-16T01:30:48.200Z,2.83
2023-02-16T01:35:53.631Z,2.83
2023-02-16T01:41:23.157Z,2.83
2023-02-16T01:46:37.339Z,2.82
2023-02-16T01:51:53.931Z,2.81
2023-02-16T01:57:06.151Z,2.79
2023-02-16T02:02:22.643Z,2.77
2023-02-16T02:07:41.955Z,2.76
2023-02-16T02:13:03.522Z,2.74
2023-02-16T02:18:06.915Z,2.75
2023-02-16T02:23:39.193Z,2.77
2023-02-16T02:28:45.782Z,2.78
2023-02-16T02:34:17.354Z,2.77
2023-02-16T02:39:45.548Z,2.75
2023-02-16T02:45:21.728Z,2.75
2023-02-16T02:50:37.123Z,2.74
2023-02-16T02:56:04.093Z,2.73
2023-02-16T03:01:07.840Z,2.70
2023-02-16T03:06:26.374Z,2.67
2023-02-16T03:11:48.603Z,2.65
2023-02-16T03:17:16.217Z,2.65
2023-02-16T03:22:38.258Z,2.63
2023-02-16T03:28:02.165Z,2.60
2023-02-16T03:33:05.458Z,2.56
2023-02-16T03:38:09.078Z,2.53
2023-02-16T03:43:11.975Z,2.52
2023-02-16T03:48:15.489Z,2.50
2023-02-16T03:53:19.418Z,2.49
2023-02-16T03:58:25.229Z,2.50
2023-02-16T04:03:28.393Z,2.48
2023-02-16T04:08:31.397Z,2.49
2023-02-16T04:13:34.502Z,2.47
2023-02-16T04:18:37.711Z,2.44
2023-02-16T04:23:40.782Z,2.41
2023-02-16T04:28:43.928Z,2.41
2023-02-16T04:33:46.920Z,2.40
2023-02-16T04:38:50.027Z,2.39
2023-02-16T04:43:54.061Z,2.37
2023-02-16T04:48:58.078Z,2.34
2023-02-16T04:54:01.185Z,2.32
2023-02-16T04:59:04.398Z,2.28
2023-02-16T05:04:09.586Z,2.27
2023-02-16T05:09:12.658Z,2.25
2023-02-16T05:14:42.877Z,2.24
2023-02-16T05:19:50.522Z,2.23
2023-02-16T05:24:53.607Z,2.21
2023-02-16T05:29:57.065Z,2.17
2023-02-16T05:35:00.332Z,2.14
2023-02-16T05:40:04.465Z,2.11
2023-02-16T05:45:08.183Z,2.09
2023-02-16T05:50:12.009Z,2.08
2023-02-16T05:55:15.011Z,2.07
2023-02-16T06:00:18.526Z,2.03
2023-02-16T06:05:21.736Z,1.98
2023-02-16T06:10:24.838Z,1.95
2023-02-16T06:15:28.356Z,1.94
2023-02-16T06:20:31.866Z,1.91
2023-02-16T06:25:34.977Z,1.91
2023-02-16T06:30:38.199Z,1.91
2023-02-16T06:35:41.195Z,1.90
2023-02-16T06:40:44.393Z,1.90
2023-02-16T06:45:48.115Z,1.92
2023-02-16T06:50:52.000Z,1.93
2023-02-16T06:55:55.145Z,1.91
2023-02-16T07:00:58.688Z,1.89
2023-02-16T07:06:02.582Z,1.86
2023-02-16T07:11:06.565Z,1.83
2023-02-16T07:16:10.662Z,1.80
2023-02-16T07:21:14.663Z,1.79
2023-02-16T07:26:18.896Z,1.79
2023-02-16T07:31:22.173Z,1.83
2023-02-16T07:36:25.619Z,1.88
2023-02-16T07:41:28.928Z,1.93
2023-02-16T07:46:33.384Z,2.00
2023-02-16T07:51:36.983Z,2.02
2023-02-16T07:56:40.287Z,2.03
2023-02-16T08:01:43.443Z,2.06
2023-02-16T08:06:48.920Z,2.08
2023-02-16T08:11:52.167Z,2.13
2023-02-16T08:16:56.779Z,2.23
2023-02-16T08:22:02.687Z,2.31
2023-02-16T08:27:06.507Z,2.37
2023-02-16T08:32:14.758Z,2.41
2023-02-16T08:37:19.067Z,2.49
2023-02-16T08:42:22.580Z,2.54
2023-02-16T08:47:26.094Z,2.58
2023-02-16T08:52:29.247Z,2.66
2023-02-16T08:57:36.089Z,2.74
2023-02-16T09:02:39.473Z,2.79
2023-02-16T09:07:43.322Z,2.87
2023-02-16T09:12:50.018Z,2.94
2023-02-16T09:17:53.022Z,3.00
2023-02-16T09:22:56.120Z,2.99
2023-02-16T09:27:59.941Z,3.06
2023-02-16T09:33:03.458Z,3.17
2023-02-16T09:38:08.524Z,3.26
2023-02-16T09:43:39.791Z,3.37
2023-02-16T09:48:47.151Z,3.49
2023-02-16T09:53:58.584Z,3.55
2023-02-16T09:59:15.252Z,3.59
2023-02-16T10:04:35.717Z,3.55
2023-02-16T10:09:42.621Z,3.62
2023-02-16T10:14:56.061Z,3.68
2023-02-16T10:20:12.685Z,3.69
2023-02-16T10:25:27.545Z,3.68
2023-02-16T10:30:32.707Z,3.67
2023-02-16T10:35:48.314Z,3.69
2023-02-16T10:41:10.776Z,3.75
2023-02-16T10:46:34.441Z,3.74
2023-02-16T10:51:38.494Z,3.81
2023-02-16T10:56:52.966Z,3.88
2023-02-16T11:02:00.987Z,3.93
2023-02-16T11:07:31.945Z,4.01
2023-02-16T11:12:39.761Z,4.06
2023-02-16T11:18:00.037Z,4.07
2023-02-16T11:23:31.340Z,4.13
2023-02-16T11:28:40.285Z,4.20
2023-02-16T11:33:55.266Z,4.24
2023-02-16T11:39:24.287Z,4.29
2023-02-16T11:44:51.038Z,4.36
2023-02-16T11:50:20.765Z,4.43
2023-02-16T11:55:36.463Z,4.53
2023-02-16T12:00:47.385Z,4.65
2023-02-16T12:06:02.740Z,4.73
2023-02-16T12:11:26.642Z,4.79
2023-02-16T12:16:36.208Z,4.89
2023-02-16T12:21:48.716Z,4.94
2023-02-16T12:27:09.943Z,5.01
2023-02-16T12:32:35.185Z,5.01
2023-02-16T12:37:41.855Z,5.07
2023-02-16T12:42:48.547Z,5.18
2023-02-16T12:47:58.101Z,5.23
2023-02-16T12:53:20.370Z,5.34
2023-02-16T12:58:42.606Z,5.53
2023-02-16T13:03:51.681Z,5.68
2023-02-16T13:09:00.907Z,5.75
2023-02-16T13:14:14.664Z,5.81
2023-02-16T13:19:18.701Z,5.96
2023-02-16T13:24:43.204Z,6.02
2023-02-16T13:30:01.495Z,5.89
2023-02-16T13:35:37.497Z,5.77
2023-02-16T13:40:58.972Z,5.67
2023-02-16T13:46:08.710Z,5.64
2023-02-16T13:51:24.026Z,5.73
2023-02-16T13:56:30.101Z,5.75
2023-02-16T14:01:39.292Z,5.80
2023-02-16T14:06:43.272Z,5.72
2023-02-16T14:12:09.727Z,5.59
2023-02-16T14:17:16.886Z,5.44
2023-02-16T14:22:33.553Z,5.24
2023-02-16T14:27:48.945Z,5.01
2023-02-16T14:33:18.380Z,4.78
2023-02-16T14:38:27.821Z,4.52
2023-02-16T14:43:42.704Z,4.35
2023-02-16T14:49:14.274Z,4.25
2023-02-16T14:54:50.937Z,4.13
2023-02-16T15:00:04.780Z,4.03
2023-02-16T15:05:36.190Z,3.96
2023-02-16T15:10:40.698Z,3.84
2023-02-16T15:15:49.083Z,3.70
2023-02-16T15:20:55.399Z,3.56
2023-02-16T15:26:03.412Z,3.41
2023-02-16T15:31:18.669Z,3.25
2023-02-16T15:36:36.096Z,3.07
2023-02-16T15:41:42.684Z,2.87
2023-02-16T15:46:45.886Z,2.68
2023-02-16T15:51:49.814Z,2.48
2023-02-16T15:56:55.953Z,2.28
2023-02-16T16:02:01.090Z,2.08
2023-02-16T16:07:08.960Z,1.93
2023-02-16T16:12:16.878Z,1.79
2023-02-16T16:17:28.313Z,1.67
2023-02-16T16:22:37.113Z,1.53
2023-02-16T16:27:48.206Z,1.36
2023-02-16T16:33:06.281Z,1.21
2023-02-16T16:38:26.814Z,1.09
2023-02-16T16:43:36.779Z,1.04
2023-02-16T16:48:45.685Z,0.99
2023-02-16T16:54:00.962Z,0.91
2023-02-16T16:59:05.108Z,0.83
2023-02-16T17:04:08.155Z,0.74
2023-02-16T17:09:11.429Z,0.65
2023-02-16T17:14:17.601Z,0.55
2023-02-16T17:19:22.747Z,0.46
2023-02-16T17:24:25.958Z,0.38
2023-02-16T17:29:29.163Z,0.29
2023-02-16T17:34:32.279Z,0.24
2023-02-16T17:39:35.454Z,0.23
2023-02-16T17:44:38.695Z,0.23
2023-02-16T17:49:43.809Z,0.22
2023-02-16T17:54:47.063Z,0.20
2023-02-16T17:59:50.667Z,0.16
2023-02-16T18:04:54.896Z,0.14
2023-02-16T18:09:58.721Z,0.15
2023-02-16T18:15:12.108Z,0.15
2023-02-16T18:20:17.586Z,0.14
2023-02-16T18:25:22.074Z,0.09
2023-02-16T18:30:26.535Z,0.04
2023-02-16T18:35:32.765Z,0.03
2023-02-16T18:40:37.958Z,0.01
2023-02-16T18:45:45.292Z,0.05
2023-02-16T18:50:49.042Z,0.11
2023-02-16T18:55:53.373Z,0.13
2023-02-16T19:00:56.910Z,0.13
2023-02-16T19:06:00.437Z,0.09
2023-02-16T19:11:03.747Z,0.04
2023-02-16T19:16:07.787Z,-0.00
2023-02-16T19:21:13.591Z,-0.04
2023-02-16T19:26:19.731Z,-0.07
2023-02-16T19:31:26.860Z,-0.02
2023-02-16T19:36:32.663Z,0.09
2023-02-16T19:41:40.506Z,0.19
2023-02-16T19:46:44.939Z,0.25
2023-02-16T19:51:49.678Z,0.30
2023-02-16T19:56:54.637Z,0.38
2023-02-16T20:01:59.446Z,0.51
2023-02-16T20:07:04.837Z,0.69
2023-02-16T20:12:08.760Z,0.85
2023-02-16T20:17:12.173Z,0.98
2023-02-16T20:22:17.333Z,1.09
2023-02-16T20:27:21.357Z,1.21
2023-02-16T20:32:28.776Z,1.40
2023-02-16T20:37:32.282Z,1.61
2023-02-16T20:42:36.003Z,1.81
2023-02-16T20:47:40.954Z,2.00
2023-02-16T20:52:44.973Z,2.14
2023-02-16T20:57:48.390Z,2.26
2023-02-16T21:02:52.413Z,2.39
2023-02-16T21:07:56.238Z,2.50
2023-02-16T21:12:59.442Z,2.60
2023-02-16T21:18:02.858Z,2.70
2023-02-16T21:23:07.706Z,2.81
2023-02-16T21:28:11.121Z,2.89
2023-02-16T21:33:14.224Z,2.98
2023-02-16T21:38:18.048Z,3.06
2023-02-16T21:43:21.562Z,3.14
2023-02-16T21:48:43.100Z,3.21
2023-02-16T21:53:47.742Z,3.28
2023-02-16T21:58:52.388Z,3.34
2023-02-16T22:04:01.678Z,3.39
2023-02-16T22:09:08.534Z,3.43
2023-02-16T22:14:12.249Z,3.46
2023-02-16T22:19:18.311Z,3.49
2023-02-16T22:24:21.428Z,3.53
2023-02-16T22:29:24.742Z,3.55
2023-02-16T22:34:27.744Z,3.59
2023-02-16T22:39:31.516Z,3.61
2023-02-16T22:44:34.778Z,3.63
2023-02-16T22:49:37.886Z,3.62
2023-02-16T22:54:41.196Z,3.62
2023-02-16T22:59:44.303Z,3.63
2023-02-16T23:04:47.508Z,3.64
2023-02-16T23:09:50.925Z,3.66
2023-02-16T23:14:54.030Z,3.66
2023-02-16T23:19:57.038Z,3.67
2023-02-16T23:25:18.986Z,3.68
2023-02-16T23:30:22.166Z,3.71
2023-02-16T23:35:25.604Z,3.74
2023-02-16T23:40:28.702Z,3.76
2023-02-16T23:45:32.126Z,3.78
2023-02-16T23:50:35.228Z,3.81
2023-02-16T23:55:38.530Z,3.85
